»·PEaware :: ASPEN26 KEND-KEND

ASPEN26 :: KEND-KEND

FLIGHT INFORMATION

Flight Status: Arrived
Operator: Unknown
More flights by this operator :: More flights under this callsign
Pilot: Keith S. (1)
Aircraft: BEECH AIRCRAFT T-6A TEXAN
(TEX2)
More flights by this aircraft type
Origin: KEND Vance AFB
United States
Destination: KEND Vance AFB
United States
More flights between these airports :: More routes between these airports
Route: +
File this flight plan on PilotEdge
Remarks:
Altitude:
(Current/Filed)
0ft
Speed:
(Current/Filed)
0kts
Departed: 11-Jan-19 12:56 PM
Arrived: 11-Jan-19 01:53 PM
Distance/Time
Traveled:
0nm/0:57
Distance/Time
To Go:
Arrived

Flight Plot

Page will automatically refresh every two minutes.

Flight plan parsing failed; only flown route is shown


Map Options




Map Legend


Flown Route
Filed Route
Departure Airport
Arrival Airport
Navaid (VOR, NDB)
Fix

Horizontal Profiles

Position Reports

Time Latitude Longitude Heading Altitude Ground
Speed
11-Jan-19 12:43 36.338057 -97.908540 256 1288ft 0kts
11-Jan-19 12:44 36.338057 -97.908540 256 1288ft 0kts
11-Jan-19 12:45 36.338057 -97.908540 256 1288ft 0kts
11-Jan-19 12:46 36.338057 -97.908540 256 1288ft 0kts
11-Jan-19 12:47 36.338057 -97.908540 256 1288ft 0kts
11-Jan-19 12:48 36.338057 -97.908540 256 1288ft 0kts
11-Jan-19 12:49 36.338057 -97.908540 256 1288ft 0kts
11-Jan-19 12:50 36.338062 -97.908963 273 1288ft 4kts
11-Jan-19 12:51 36.341138 -97.909198 0 1285ft 17kts
11-Jan-19 12:52 36.346788 -97.909556 280 1277ft 5kts
11-Jan-19 12:53 36.346801 -97.909897 269 1277ft 0kts
11-Jan-19 12:54 36.346801 -97.909897 269 1277ft 0kts
11-Jan-19 12:55 36.342697 -97.911033 179 1282ft 102kts
11-Jan-19 12:56 36.300330 -97.909393 176 3470ft 171kts
11-Jan-19 12:57 36.248866 -97.902423 166 5003ft 221kts
11-Jan-19 12:58 36.269512 -97.868789 334 5021ft 221kts
11-Jan-19 12:59 36.329067 -97.910378 331 4921ft 261kts
11-Jan-19 13:00 36.387793 -97.914335 5 8162ft 193kts
11-Jan-19 13:01 36.441209 -97.912638 6 10885ft 199kts
11-Jan-19 13:02 36.497323 -97.905555 359 12920ft 223kts
11-Jan-19 13:03 36.565983 -97.904448 1 13135ft 258kts
11-Jan-19 13:04 36.633620 -97.900461 359 14888ft 232kts
11-Jan-19 13:05 36.672473 -97.897070 8 15912ft 224kts
11-Jan-19 13:12 36.794990 -97.846755 35 19382ft 223kts
11-Jan-19 13:13 36.794990 -97.846755 35 19382ft 223kts
11-Jan-19 13:14 36.794990 -97.846755 35 19382ft 223kts
11-Jan-19 13:15 36.794990 -97.846755 35 19382ft 223kts
11-Jan-19 13:16 36.794990 -97.846755 35 19382ft 223kts
11-Jan-19 13:17 36.794990 -97.846755 35 19382ft 223kts
11-Jan-19 13:18 36.794990 -97.846755 35 19382ft 223kts
11-Jan-19 13:19 36.794990 -97.846755 35 19382ft 223kts
11-Jan-19 13:20 36.794990 -97.846755 35 19382ft 223kts
11-Jan-19 13:21 36.794990 -97.846755 35 19382ft 223kts
11-Jan-19 13:22 36.801810 -97.840094 43 19605ft 222kts
11-Jan-19 13:23 36.823368 -97.868940 245 19397ft 253kts
11-Jan-19 13:24 36.820334 -97.880402 256 19422ft 255kts
11-Jan-19 13:25 36.808284 -97.954602 252 19357ft 271kts
11-Jan-19 13:26 36.777397 -97.904719 85 19525ft 263kts
11-Jan-19 13:27 36.777636 -97.875037 262 14263ft 370kts
11-Jan-19 13:28 36.777636 -97.875037 262 14263ft 370kts
11-Jan-19 13:29 36.777636 -97.875037 262 14263ft 370kts
11-Jan-19 13:30 36.775852 -97.891653 262 14268ft 351kts
11-Jan-19 13:31 36.774078 -97.951804 270 15228ft 218kts
11-Jan-19 13:32 36.774085 -97.953023 270 15259ft 215kts
11-Jan-19 13:33 36.757597 -97.979086 91 15630ft 187kts
11-Jan-19 13:34 36.766449 -97.944089 76 16377ft 185kts
11-Jan-19 13:35 36.766449 -97.944089 76 16377ft 185kts
11-Jan-19 13:36 36.766449 -97.944089 76 16377ft 185kts
11-Jan-19 13:38 36.767238 -97.938540 84 16467ft 187kts
11-Jan-19 13:39 36.758186 -97.871858 97 17030ft 216kts
11-Jan-19 13:40 36.741143 -97.799988 164 16337ft 230kts
11-Jan-19 13:41 36.684531 -97.806262 190 13777ft 200kts
11-Jan-19 13:42 36.645936 -97.818985 192 12030ft 149kts
11-Jan-19 13:43 36.604193 -97.813998 171 8499ft 169kts
11-Jan-19 13:44 36.552957 -97.806474 207 3950ft 143kts
11-Jan-19 13:45 36.522010 -97.832633 215 2865ft 155kts
11-Jan-19 13:46 36.488930 -97.863707 207 2302ft 165kts
11-Jan-19 13:47 36.474154 -97.873297 208 2295ft 161kts
11-Jan-19 13:48 36.432891 -97.904054 208 2316ft 176kts
11-Jan-19 13:49 36.384398 -97.910972 178 2256ft 195kts
11-Jan-19 13:50 36.347195 -97.890902 36 2468ft 182kts
11-Jan-19 13:51 36.362829 -97.911407 209 1759ft 142kts
11-Jan-19 13:52 36.336466 -97.910971 181 1287ft 43kts
11-Jan-19 13:53 36.335486 -97.909189 358 1291ft 15kts
11-Jan-19 13:54 36.337413 -97.908687 91 1289ft 8kts
11-Jan-19 13:55 36.337411 -97.908617 91 1289ft 0kts
11-Jan-19 13:56 36.337411 -97.908617 91 1289ft 0kts
11-Jan-19 13:57 36.337411 -97.908617 91 1289ft 0kts
11-Jan-19 13:57 36.337411 -97.908617 91 1289ft 0kts
11-Jan-19 13:58 36.337411 -97.908617 91 1289ft 0kts
11-Jan-19 13:59 36.337411 -97.908617 91 1289ft 0kts
11-Jan-19 14:01 36.337411 -97.908617 91 1289ft 0kts
11-Jan-19 14:02 36.337411 -97.908617 91 1289ft 0kts
11-Jan-19 14:02 36.337411 -97.908617 91 1289ft 0kts
11-Jan-19 14:03 36.337411 -97.908617 91 1289ft 0kts
11-Jan-19 14:04 36.337411 -97.908617 91 1289ft 0kts
11-Jan-19 14:05 36.337411 -97.908617 91 1289ft 0kts
11-Jan-19 14:06 36.337411 -97.908617 91 1289ft 0kts

Navigation Log

Ident Type
Flight plan parsing failed, navigation log unavailable